Coachella, CA

1:44 AM PDT on October 01, 2014 (GMT -0700)
Twentynine Palms Expeditionary Air Field | Change Station
CLOSE
Current Station
Airport
Location: Twentynine Palms,
Elevation: 2054 ft
Nearby Weather Stations

Elev 2054 ft 34.30 °N, 116.16 °W | Updated 48 minutes ago

Clear
Clear
71 °F
Feels Like 71 °F
N
10
Wind Variable Wind from WNW

Today
High -- | Low -- °F
--% Chance of Precip.
Yesterday
High -- | Low -- °F
Precip. -- in
6:39 AM 6:28 PM
Waxing Crescent, 45% visible
Pressure 29.74 in
Visibility 10.0 miles
Clouds Clear
Dew Point 39 °F
Humidity 31%
Rainfall 0.00 in
Snow Depth Not available.
UV 0 out of 12
Pollen 5.10 out of 12
Ozone Good
Flu Activity Not available.
METAR KNXP 010756Z AUTO 29009KT 10SM CLR 22/04 A2984 RMK AO2 SLP071 T02170039 403110150

More Conditions Fewer Conditions

Pressure 29.74 in
Visibility 10.0 miles
Clouds Clear
Dew Point 39 °F
Humidity 31%
Rainfall 0.00 in
Snow Depth Not available.
UV 0 out of 12
Pollen 5.10 out of 12
Ozone Good
Flu Activity Not available.
METAR KNXP 010756Z AUTO 29009KT 10SM CLR 22/04 A2984 RMK AO2 SLP071 T02170039 403110150

More Conditions Fewer Conditions

10-Day Weather Forecast

Almanac

Astronomy

Oct. 01, 2014 Rise Set
Actual Time 6:39 AM PDT 6:28 PM PDT
Civil Twilight 6:14 AM PDT 6:53 PM PDT
Nautical Twilight 5:45 AM PDT 7:22 PM PDT
Astronomical Twilight 5:16 AM PDT 7:51 PM PDT
Moon 1:31 PM PDT No Moon Set
Length of Visible Light 12h 39m
Length of Day
11h 49m
Tomorrow will be 2m 4s shorter.
Waxing Crescent, 45% of the Moon is Illuminated
Today
Waxing Crescent
Oct 1
First Quarter
Oct 8
Full
Oct 15
Last Quarter
Oct 23
New

Today's Extremes

State Highs State Lows

Community

WunderPhotos

Upload Photos

1,757,902 photos uploaded!

Nearby

Air Quality

  Air Quality AQ Index Pollutant
Yesterday Moderate
OZONE
Yesterday Good
PM10
Current Good
OZONE
Wednesday Moderate
OZONE
Wednesday Good
PM10
Wednesday Good
CO
Wednesday Good
NO2

Snow Depth

Station Depth Elevation
CSS Lab 5 in 6900 ft
Spratt Creek 1 in 6200 ft
Echo Peak 1 in 7800 ft
Fallen Leaf 0 in 6300 ft
Leavitt Lake 1 in 9400 ft

Earthquake Activity

City Distance Mag. Time & Date
No recent earthquake activity has been reported nearby.
Minimum magnitude displayed is 2.5.

Coastal Water Temperatures

Place Temperature
No Stations Reporting

Nearby Weather Stations